Nearby METAR Reports

 

YSCB - Canberra (civ/Mi, Australia
Distance from station: NNW 6km
Updated: Mon, 19-Feb-2018 8:30am AEDT
Mostly cloudy
Mostly cloudy
 Wind from SE
Wind: SE 11 km/h
Temperature: 21°C
Dew Point: 16°C
Humidity: 73%
Barometer: 1015 hPa
Clouds: Mostly cloudy
Visibility: 10 km
Cloud details: Partly cloudy 732 m
Partly cloudy 975 m
Mostly cloudy 5486 m
2018/02/18 21:30 YSCB 182130Z 14006KT 9999 SCT024 SCT032 BKN180 21/16 Q1015 NOSIG
YCOM - Cooma Snowy Mtns, Australia
Distance from station: S 110km
Updated: Mon, 19-Feb-2018 8:30am AEDT
Overcast
Overcast
 Wind from S
Wind: S 20 km/h
Temperature: 15°C
Dew Point: 15°C
Humidity: 100%
Barometer: 1017 hPa
Clouds: Overcast
Visibility: 10 km
Cloud details: Overcast 274 m
Overcast 488 m
2018/02/18 21:30 YCOM 182130Z AUTO 19011KT 9999 // OVC009 OVC016 15/15 Q1017
 
YSNW - Nowra (aus-Navy), Australia
Distance from station: ENE 127km
Updated: Mon, 19-Feb-2018 8:29am AEDT
Partly cloudy
Partly cloudy
 Wind from ESE
Wind: ESE 13 km/h
Temperature: 23°C
Dew Point: 23°C
Humidity: 100%
Barometer: 1013 hPa
Clouds: Partly cloudy
Visibility: 10 km
Cloud details: Partly cloudy 152 m
Partly cloudy 914 m
2018/02/18 21:29 YSNW 182129Z 12007KT 9999 SCT005 SCT030 23/23 Q1013 FM2230 16006KT 9999 -SHRA FEW005 BKN010 TEMPO 2200/2400 4000 SHRA BKN010
YSWG - Wagga Wagga(Cv/M, Australia
Distance from station: W 159km
Updated: Mon, 19-Feb-2018 8:00am AEDT
Clear
Clear
 Wind from SE
Wind: SE 20 km/h
Temperature: 25°C
Dew Point: 9°C
Humidity: 36%
Barometer: 1010 hPa
Summary: Clear
Visibility: greater than 10 km
2018/02/18 21:00 YSWG 182100Z 14011KT CAVOK 25/09 Q1010
 
YMER - Merimbula Arpt, Australia
Distance from station: SSE 187km
Updated: Mon, 19-Feb-2018 8:00am AEDT
Overcast
Overcast
 Wind from S
Wind: S 13 km/h
Temperature: 20°C
Dew Point: 16°C
Humidity: 78%
Barometer: 1014 hPa
Clouds: Overcast
Visibility: 10 km
Cloud details: Overcast 1341 m
2018/02/18 21:00 YMER 182100Z AUTO 19007KT 9999 // OVC044 20/16 Q1014
YMAY - Albury Airport, Australia
Distance from station: WSW 220km
Updated: Mon, 19-Feb-2018 8:00am AEDT
Clear
Clear
 Wind from ESE
Wind: ESE 15 km/h
Temperature: 22°C
Dew Point: 14°C
Humidity: 61%
Barometer: 1011 hPa
Clouds: Clear
Visibility: 10 km
2018/02/18 21:00 YMAY 182100Z AUTO 12008KT 9999 // NCD 22/14 Q1011
 
YSSY - Sydney Intl Airp, Australia
Distance from station: NE 236km
Updated: Mon, 19-Feb-2018 8:30am AEDT
Partly cloudy
Partly cloudy
 Wind from E
Wind: E 19 km/h
Temperature: 26°C
Dew Point: 19°C
Humidity: 65%
Barometer: 1012 hPa
Clouds: Partly cloudy
Visibility: 10 km
Cloud details: Partly cloudy 579 m
Partly cloudy 3048 m
2018/02/18 21:30 YSSY 182130Z 08010KT 9999 SCT019 SCT100 26/19 Q1012 NOSIG
YSRI - Richmond (aus-Af, Australia
Distance from station: NE 240km
Updated: Mon, 19-Feb-2018 8:30am AEDT
Mostly cloudy
Mostly cloudy
 Wind from SE
Wind: SE 7 km/h
Temperature: 25°C
Dew Point: 20°C
Humidity: 74%
Barometer: 1011 hPa
Clouds: Mostly cloudy
Visibility: 10 km
Cloud details: Partly cloudy 792 m
Mostly cloudy 2987 m
2018/02/18 21:30 YSRI 182130Z AUTO 14004KT 9999 // SCT026 BKN098 25/20 Q1011
 
YNAR - Narrandera, Australia
Distance from station: WNW 254km
Updated: Mon, 19-Feb-2018 8:00am AEDT

 Wind from SE
Wind: SE 17 km/h
Temperature: 25°C
Dew Point: 11°C
Humidity: 42%
Barometer: 1009 hPa
2018/02/18 21:00 YNAR 182100Z AUTO 14009KT //// // ////// 25/11 Q1009
YWGT - Wangaratta Arp, Australia
Distance from station: WSW 288km
Updated: Mon, 19-Feb-2018 8:00am AEDT
Overcast
Overcast
 Wind from S
Wind: S 11 km/h
Temperature: 21°C
Dew Point: 14°C
Humidity: 64%
Barometer: 1012 hPa
Clouds: Overcast
Visibility: 10 km
Cloud details: Partly cloudy 2195 m
Overcast 3658 m
2018/02/18 21:00 YWGT 182100Z AUTO 18006KT 9999 // SCT072 OVC120 21/14 Q1012